createdAt,value
2023-05-08T00:00:51.289Z,4.80
2023-05-08T00:05:55.806Z,5.10
2023-05-08T00:11:01.850Z,5.55
2023-05-08T00:16:09.356Z,5.00
2023-05-08T00:21:13.230Z,4.90
2023-05-08T00:26:16.771Z,5.53
2023-05-08T00:31:23.403Z,4.75
2023-05-08T00:36:27.631Z,4.97
2023-05-08T00:41:34.672Z,4.85
2023-05-08T00:46:43.167Z,4.47
2023-05-08T00:51:49.692Z,5.25
2023-05-08T00:56:54.502Z,4.93
2023-05-08T01:01:59.489Z,5.07
2023-05-08T01:07:08.332Z,5.72
2023-05-08T01:12:16.014Z,5.68
2023-05-08T01:17:27.326Z,5.32
2023-05-08T01:23:05.610Z,6.05
2023-05-08T01:28:29.934Z,5.60
2023-05-08T01:33:38.794Z,5.65
2023-05-08T01:38:48.076Z,5.93
2023-05-08T01:44:08.640Z,5.85
2023-05-08T01:49:16.779Z,5.55
2023-05-08T01:54:46.633Z,6.07
2023-05-08T02:04:55.255Z,6.05
2023-05-08T02:09:59.310Z,5.78
2023-05-08T02:15:03.817Z,6.00
2023-05-08T02:20:15.008Z,6.38
2023-05-08T02:25:23.655Z,5.82
2023-05-08T02:30:27.444Z,6.32
2023-05-08T02:35:33.410Z,6.72
2023-05-08T02:40:37.737Z,6.88
2023-05-08T02:45:46.288Z,6.80
2023-05-08T02:50:58.952Z,7.15
2023-05-08T02:56:11.075Z,6.90
2023-05-08T03:01:20.157Z,6.82
2023-05-08T03:06:27.243Z,6.57
2023-05-08T03:11:35.082Z,6.80
2023-05-08T03:16:45.033Z,6.97
2023-05-08T03:21:51.080Z,7.22
2023-05-08T03:26:54.650Z,7.47
2023-05-08T03:31:59.354Z,7.38
2023-05-08T03:37:07.275Z,7.32
2023-05-08T03:42:22.730Z,7.30
2023-05-08T03:47:27.669Z,9.73
2023-05-08T03:52:33.601Z,20.02
2023-05-08T03:57:40.136Z,7.95
2023-05-08T04:02:48.857Z,8.13
2023-05-08T04:07:58.087Z,9.35
2023-05-08T04:13:06.614Z,9.63
2023-05-08T04:18:18.471Z,11.32
2023-05-08T04:23:23.479Z,8.32
2023-05-08T04:28:29.564Z,7.55
2023-05-08T04:33:34.222Z,9.45
2023-05-08T04:38:39.342Z,9.82
2023-05-08T04:43:47.264Z,7.75
2023-05-08T04:48:53.163Z,9.02
2023-05-08T04:53:58.410Z,8.88
2023-05-08T04:59:02.810Z,8.63
2023-05-08T05:04:10.123Z,8.00
2023-05-08T05:09:41.106Z,10.75
2023-05-08T05:14:44.703Z,9.15
2023-05-08T05:19:50.403Z,8.38
2023-05-08T05:24:56.882Z,9.63
2023-05-08T05:30:01.123Z,9.57
2023-05-08T05:35:05.489Z,8.52
2023-05-08T05:40:16.289Z,9.60
2023-05-08T05:45:21.522Z,8.80
2023-05-08T05:50:25.342Z,8.23
2023-05-08T05:55:30.729Z,8.90
2023-05-08T06:00:37.361Z,9.32
2023-05-08T06:05:41.488Z,8.50
2023-05-08T06:10:47.805Z,9.07
2023-05-08T06:15:51.897Z,9.63
2023-05-08T06:20:59.690Z,9.13
2023-05-08T06:26:06.633Z,8.17
2023-05-08T06:31:10.900Z,8.05
2023-05-08T06:36:15.340Z,7.55
2023-05-08T06:41:21.792Z,7.20
2023-05-08T06:46:25.809Z,7.07
2023-05-08T06:51:29.926Z,6.40
2023-05-08T06:56:35.286Z,6.97
2023-05-08T07:01:41.934Z,6.63
2023-05-08T07:06:59.436Z,6.78
2023-05-08T07:12:09.443Z,6.88
2023-05-08T07:17:15.710Z,7.45
2023-05-08T07:22:21.641Z,7.95
2023-05-08T07:27:35.100Z,7.55
2023-05-08T07:32:49.262Z,8.02
2023-05-08T07:37:59.402Z,7.03
2023-05-08T07:43:08.411Z,6.70
2023-05-08T07:48:15.406Z,6.78
2023-05-08T07:53:19.610Z,6.53
2023-05-08T07:58:24.733Z,6.97
2023-05-08T08:03:30.564Z,7.40
2023-05-08T08:08:38.632Z,6.88
2023-05-08T08:13:44.966Z,7.80
2023-05-08T08:18:49.848Z,7.50
2023-05-08T08:23:53.360Z,7.60
2023-05-08T08:28:58.580Z,7.63
2023-05-08T08:34:02.413Z,6.50
2023-05-08T08:39:06.214Z,7.53
2023-05-08T08:44:10.981Z,6.30
2023-05-08T08:49:16.540Z,6.72
2023-05-08T08:54:22.764Z,6.13
2023-05-08T08:59:29.959Z,6.03
2023-05-08T09:04:35.092Z,4.97
2023-05-08T09:09:41.019Z,5.50
2023-05-08T09:14:47.320Z,6.25
2023-05-08T09:19:52.999Z,6.68
2023-05-08T09:24:58.060Z,5.50
2023-05-08T09:30:05.923Z,5.60
2023-05-08T09:35:10.415Z,5.90
2023-05-08T09:40:18.313Z,5.70
2023-05-08T09:45:30.081Z,5.80
2023-05-08T09:50:34.681Z,5.63
2023-05-08T09:55:50.521Z,5.60
2023-05-08T10:00:55.747Z,5.80
2023-05-08T10:06:13.699Z,5.63
2023-05-08T10:11:21.993Z,5.68
2023-05-08T10:16:27.056Z,5.30
2023-05-08T10:21:31.624Z,4.80
2023-05-08T10:26:38.893Z,4.60
2023-05-08T10:31:45.658Z,4.68
2023-05-08T10:36:50.199Z,5.10
2023-05-08T10:42:00.400Z,4.90
2023-05-08T10:47:09.551Z,5.03
2023-05-08T10:52:17.652Z,4.25
2023-05-08T10:57:21.303Z,4.47
2023-05-08T11:02:30.452Z,4.47
2023-05-08T11:07:56.046Z,4.32
2023-05-08T11:13:00.152Z,3.70
2023-05-08T11:18:11.745Z,4.00
2023-05-08T11:23:25.369Z,4.30
2023-05-08T11:28:29.713Z,4.05
2023-05-08T11:33:37.893Z,3.40
2023-05-08T11:38:43.554Z,3.47
2023-05-08T11:44:14.869Z,3.53
2023-05-08T11:49:26.942Z,3.90
2023-05-08T11:54:32.813Z,3.75
2023-05-08T11:59:38.013Z,4.45
2023-05-08T12:04:46.924Z,3.63
2023-05-08T12:09:51.695Z,3.90
2023-05-08T12:14:56.978Z,4.03
2023-05-08T12:20:23.340Z,3.75
2023-05-08T12:30:36.589Z,3.10
2023-05-08T12:40:49.271Z,3.40
2023-05-08T12:45:54.137Z,3.20
2023-05-08T12:51:03.945Z,3.30
2023-05-08T12:56:10.813Z,3.50
2023-05-08T13:01:14.714Z,3.95
2023-05-08T13:06:23.233Z,3.50
2023-05-08T13:11:31.418Z,3.28
2023-05-08T13:16:44.577Z,3.40
2023-05-08T13:21:51.015Z,3.78
2023-05-08T13:26:54.436Z,3.60
2023-05-08T13:31:59.039Z,3.33
2023-05-08T13:37:04.359Z,3.50
2023-05-08T13:42:08.078Z,3.58
2023-05-08T13:47:12.086Z,4.28
2023-05-08T13:52:18.365Z,4.38
2023-05-08T13:57:22.221Z,4.28
2023-05-08T14:02:26.288Z,4.32
2023-05-08T14:07:32.084Z,4.15
2023-05-08T14:12:40.287Z,4.13
2023-05-08T14:17:44.920Z,4.00
2023-05-08T14:22:49.755Z,3.80
2023-05-08T14:27:53.504Z,5.30
2023-05-08T14:32:57.975Z,5.45
2023-05-08T14:38:03.230Z,5.60
2023-05-08T14:43:06.950Z,5.43
2023-05-08T14:48:11.153Z,5.22
2023-05-08T14:53:16.479Z,5.32
2023-05-08T14:58:20.688Z,5.35
2023-05-08T15:03:24.633Z,5.03
2023-05-08T15:08:29.992Z,4.85
2023-05-08T15:13:34.056Z,4.90
2023-05-08T15:18:37.492Z,6.20
2023-05-08T15:23:42.428Z,6.50
2023-05-08T15:28:51.186Z,7.03
2023-05-08T15:33:55.154Z,7.07
2023-05-08T15:39:00.506Z,6.85
2023-05-08T15:44:06.391Z,6.68
2023-05-08T15:49:10.729Z,6.40
2023-05-08T15:54:18.160Z,6.10
2023-05-08T15:59:23.374Z,6.60
2023-05-08T16:04:29.065Z,4.50
2023-05-08T16:09:34.581Z,3.50
2023-05-08T16:14:38.689Z,3.80
2023-05-08T16:19:42.740Z,3.40
2023-05-08T16:24:48.601Z,3.15
2023-05-08T16:29:55.044Z,2.47
2023-05-08T16:35:00.386Z,2.20
2023-05-08T16:40:06.633Z,2.42
2023-05-08T16:45:11.592Z,2.97
2023-05-08T16:50:15.454Z,3.40
2023-05-08T16:55:21.143Z,3.08
2023-05-08T17:00:25.465Z,3.10
2023-05-08T17:05:28.771Z,2.90
2023-05-08T17:10:34.778Z,3.15
2023-05-08T17:15:39.051Z,3.00
2023-05-08T17:20:42.574Z,3.40
2023-05-08T17:25:48.931Z,4.80
2023-05-08T17:30:52.606Z,4.30
2023-05-08T17:35:57.325Z,4.70
2023-05-08T17:41:02.701Z,3.67
2023-05-08T17:46:07.461Z,3.83
2023-05-08T17:51:17.971Z,3.45
2023-05-08T17:56:23.714Z,3.70
2023-05-08T18:01:29.508Z,3.65
2023-05-08T18:06:32.966Z,3.97
2023-05-08T18:11:39.000Z,3.97
2023-05-08T18:16:42.854Z,4.60
2023-05-08T18:21:46.400Z,5.30
2023-05-08T18:26:52.763Z,5.68
2023-05-08T18:31:56.283Z,5.60
2023-05-08T18:37:00.892Z,5.68
2023-05-08T18:42:05.883Z,5.05
2023-05-08T18:47:09.988Z,5.45
2023-05-08T18:52:15.197Z,5.55
2023-05-08T18:57:20.461Z,5.13
2023-05-08T19:02:24.898Z,5.53
2023-05-08T19:07:28.919Z,4.85
2023-05-08T19:12:34.244Z,5.25
2023-05-08T19:17:38.202Z,5.30
2023-05-08T19:22:42.043Z,4.88
2023-05-08T19:27:47.360Z,5.38
2023-05-08T19:32:53.043Z,5.78
2023-05-08T19:37:57.469Z,5.90
2023-05-08T19:43:04.118Z,5.60
2023-05-08T19:48:16.192Z,5.57
2023-05-08T19:53:25.929Z,6.05
2023-05-08T19:58:31.032Z,5.88
2023-05-08T20:04:40.029Z,5.47
2023-05-08T20:10:03.640Z,5.68
2023-05-08T20:15:33.264Z,5.55
2023-05-08T20:32:26.989Z,6.22
2023-05-08T20:37:34.705Z,6.80
2023-05-08T20:42:41.167Z,7.60
2023-05-08T20:47:47.379Z,8.48
2023-05-08T20:52:52.633Z,9.65
2023-05-08T20:57:56.787Z,9.40
2023-05-08T21:03:01.988Z,9.75
2023-05-08T21:08:10.402Z,9.80
2023-05-08T21:13:14.826Z,10.40
2023-05-08T21:18:21.990Z,10.30
2023-05-08T21:23:31.522Z,10.00
2023-05-08T21:28:35.504Z,10.65
2023-05-08T21:40:58.675Z,11.27
2023-05-08T21:46:09.408Z,11.80
2023-05-08T21:51:14.522Z,11.20
2023-05-08T21:56:21.112Z,11.77
2023-05-08T22:01:25.939Z,10.15
2023-05-08T22:06:30.909Z,11.70
2023-05-08T22:11:38.230Z,10.95
2023-05-08T22:16:42.991Z,10.50
2023-05-08T22:21:46.743Z,10.73
2023-05-08T22:26:56.037Z,10.68
2023-05-08T22:37:39.878Z,10.43
2023-05-08T22:43:23.878Z,10.55
2023-05-08T22:48:32.308Z,10.90
2023-05-08T22:53:37.178Z,11.20
2023-05-08T22:59:00.960Z,11.25
2023-05-08T23:04:13.471Z,11.00
2023-05-08T23:10:01.647Z,11.23
2023-05-08T23:15:29.542Z,11.10
2023-05-08T23:20:40.350Z,11.30
2023-05-08T23:26:06.266Z,10.48
2023-05-08T23:32:05.965Z,10.30
2023-05-08T23:37:28.060Z,9.80
2023-05-08T23:42:58.000Z,10.00
2023-05-08T23:48:10.201Z,10.80
2023-05-08T23:54:02.715Z,10.57
2023-05-08T23:59:30.742Z,9.75
